Time;durP1;ratioP1;P1;durP2;ratioP2;P2;SDS_P1;SDS_P2;PMS_P1;PMS_P2;Temp;Humidity;BMP_temperature;BMP_pressure;BME280_temperature;BME280_humidity;BME280_pressure;Samples;Min_cycle;Max_cycle;Signal;HPM_P1;HPM_P2
2022/05/14 00:01:02;;;;;;;4.90;1.63;;;15.00;99.90;;;;;;5096943;28;20077;-67
2022/05/14 00:03:28;;;;;;;;;;;15.00;99.90;;;;;;5095691;28;20028;-67
2022/05/14 00:05:56;;;;;;;3.72;1.70;;;15.10;99.90;;;;;;5096272;28;19911;-67
2022/05/14 00:08:22;;;;;;;6.35;1.80;;;15.10;99.90;;;;;;5095902;28;20031;-66
2022/05/14 00:13:33;;;;;;;4.82;1.70;;;15.10;99.90;;;;;;5096677;28;20491;-67
2022/05/14 00:15:59;;;;;;;4.57;1.30;;;15.00;99.90;;;;;;5095796;28;20039;-65
2022/05/14 00:18:25;;;;;;;4.57;1.70;;;15.20;99.90;;;;;;5095835;28;20036;-66
2022/05/14 00:20:51;;;;;;;5.00;1.90;;;15.30;99.90;;;;;;5095888;28;20016;-66
2022/05/14 00:23:16;;;;;;;3.72;1.77;;;15.20;99.90;;;;;;5096199;28;20258;-66
2022/05/14 00:25:43;;;;;;;4.40;1.83;;;15.10;99.90;;;;;;5095652;28;20031;-66
2022/05/14 00:28:09;;;;;;;4.60;2.22;;;15.10;99.90;;;;;;5095870;28;20028;-66
2022/05/14 00:30:36;;;;;;;4.35;1.75;;;15.20;99.90;;;;;;5095788;28;20032;-66
2022/05/14 00:33:02;;;;;;;4.72;1.50;;;15.10;99.90;;;;;;5096160;28;20024;-66
2022/05/14 00:35:29;;;;;;;5.18;1.45;;;15.10;99.90;;;;;;5077644;28;20435;-66
2022/05/14 00:37:54;;;;;;;3.60;1.83;;;14.90;99.90;;;;;;5096082;28;20032;-66
2022/05/14 00:40:20;;;;;;;4.63;1.30;;;14.70;99.90;;;;;;5077817;28;20477;-66
2022/05/14 00:42:45;;;;;;;4.33;1.60;;;14.60;99.90;;;;;;5095895;28;20501;-66
2022/05/14 00:45:13;;;;;;;2.92;1.42;;;14.50;99.90;;;;;;5095646;28;20023;-66
2022/05/14 00:47:42;;;;;;;7.13;1.88;;;14.50;99.90;;;;;;5077098;28;20039;-66
2022/05/14 00:50:34;;;;;;;3.03;1.40;;;14.40;99.90;;;;;;5077237;28;20377;-66
2022/05/14 00:53:15;;;;;;;5.10;1.60;;;14.40;99.90;;;;;;5095500;28;20032;-66
2022/05/14 00:55:43;;;;;;;3.88;1.67;;;14.50;99.90;;;;;;5095929;28;20073;-65
2022/05/14 00:58:14;;;;;;;5.78;1.85;;;14.50;99.90;;;;;;5094992;28;20484;-66
2022/05/14 01:00:39;;;;;;;2.95;1.50;;;14.60;99.90;;;;;;5095115;28;20028;-66
2022/05/14 01:03:05;;;;;;;4.80;1.92;;;14.50;99.90;;;;;;5095100;28;20077;-66
2022/05/14 01:05:32;;;;;;;7.30;1.63;;;14.40;99.90;;;;;;5095269;28;20032;-66
2022/05/14 01:08:00;;;;;;;;;;;14.30;99.90;;;;;;5095164;28;20100;-66
2022/05/14 01:10:31;;;;;;;5.53;1.63;;;14.20;99.90;;;;;;5096008;28;19975;-66
2022/05/14 01:13:00;;;;;;;8.52;1.65;;;14.20;99.90;;;;;;5095794;28;20043;-66
2022/05/14 01:15:45;;;;;;;6.40;1.40;;;14.20;99.90;;;;;;5076632;28;20119;-66
2022/05/14 01:18:11;;;;;;;2.90;1.35;;;14.20;99.90;;;;;;5076381;28;20119;-66
2022/05/14 01:20:37;;;;;;;6.78;1.25;;;14.40;99.90;;;;;;5095522;28;20031;-66
2022/05/14 01:23:31;;;;;;;6.57;1.30;;;14.50;99.90;;;;;;5094651;28;20051;-66
2022/05/14 01:26:29;;;;;;;4.45;1.52;;;14.50;99.90;;;;;;5076485;28;20016;-67
2022/05/14 01:29:01;;;;;;;3.80;1.40;;;14.50;99.90;;;;;;5094126;28;20081;-67
2022/05/14 01:31:28;;;;;;;5.32;1.52;;;14.50;99.90;;;;;;5094423;28;20036;-67
2022/05/14 01:33:55;;;;;;;3.88;1.55;;;14.40;99.90;;;;;;5094544;28;20024;-67
2022/05/14 01:36:21;;;;;;;2.63;1.40;;;14.30;99.90;;;;;;5093860;28;20031;-66
2022/05/14 01:38:47;;;;;;;2.40;1.60;;;14.30;99.90;;;;;;5075498;28;20050;-67
2022/05/14 01:41:12;;;;;;;3.63;1.27;;;14.20;99.90;;;;;;5094016;28;20051;-67
2022/05/14 01:43:38;;;;;;;4.60;1.40;;;14.00;99.90;;;;;;5093986;28;20537;-67
2022/05/14 01:46:05;;;;;;;5.43;1.63;;;13.90;99.90;;;;;;5075874;28;20254;-67
2022/05/14 01:48:30;;;;;;;2.50;1.13;;;13.90;99.90;;;;;;5094011;28;20080;-67
2022/05/14 01:50:56;;;;;;;2.97;1.30;;;13.80;99.90;;;;;;5094098;28;20103;-67
2022/05/14 01:53:22;;;;;;;2.97;1.47;;;13.80;99.90;;;;;;5094404;28;20262;-66
2022/05/14 01:55:48;;;;;;;4.20;1.50;;;13.70;99.90;;;;;;5093647;28;20481;-66
2022/05/14 02:00:58;;;;;;;4.15;1.13;;;13.60;99.90;;;;;;5093863;28;20097;-66
2022/05/14 02:03:24;;;;;;;4.20;1.67;;;13.60;99.90;;;;;;5093572;28;20071;-66
2022/05/14 02:05:49;;;;;;;2.23;1.30;;;13.60;99.90;;;;;;5093566;28;20428;-67
2022/05/14 02:08:15;;;;;;;6.18;1.35;;;13.60;99.90;;;;;;5093562;28;20345;-65
2022/05/14 02:10:41;;;;;;;4.30;1.40;;;13.60;99.90;;;;;;5093508;28;20480;-67
2022/05/14 02:13:06;;;;;;;4.27;1.33;;;13.60;99.90;;;;;;5093335;28;20107;-66
2022/05/14 02:15:32;;;;;;;4.73;1.50;;;13.60;99.90;;;;;;5093433;28;20081;-65
2022/05/14 02:17:57;;;;;;;6.57;1.60;;;13.50;99.90;;;;;;5093220;28;20043;-65
2022/05/14 02:20:24;;;;;;;6.23;1.30;;;13.40;99.90;;;;;;5093374;28;20273;-66
2022/05/14 02:22:51;;;;;;;6.15;1.92;;;13.50;99.90;;;;;;5075143;28;20064;-66
2022/05/14 02:25:19;;;;;;;3.53;1.40;;;13.60;99.90;;;;;;5093102;28;20020;-66
2022/05/14 02:27:45;;;;;;;6.43;1.50;;;13.50;99.90;;;;;;5093314;28;20029;-66
2022/05/14 02:30:12;;;;;;;4.68;1.38;;;13.40;99.90;;;;;;5093203;28;20032;-66
2022/05/14 02:32:38;;;;;;;3.33;1.10;;;13.30;99.90;;;;;;5074849;28;20031;-66
2022/05/14 02:35:04;;;;;;;4.88;1.63;;;13.30;99.90;;;;;;5093101;28;20016;-66
2022/05/14 02:37:30;;;;;;;7.63;1.58;;;13.30;99.90;;;;;;5093104;28;20084;-66
2022/05/14 02:39:56;;;;;;;2.15;1.25;;;13.20;99.90;;;;;;5092966;28;20024;-66
2022/05/14 02:42:22;;;;;;;3.95;1.60;;;13.30;99.90;;;;;;5092876;28;20032;-66
2022/05/14 02:44:48;;;;;;;7.32;1.40;;;13.50;99.90;;;;;;5093311;28;20024;-66
2022/05/14 02:47:14;;;;;;;3.70;1.35;;;13.40;99.90;;;;;;5095176;28;20043;-66
2022/05/14 02:49:40;;;;;;;2.83;1.23;;;13.30;99.90;;;;;;5101310;28;20031;-66
2022/05/14 02:52:06;;;;;;;3.13;1.37;;;13.40;99.90;;;;;;5096122;28;20087;-66
2022/05/14 02:54:32;;;;;;;4.38;1.63;;;13.60;99.90;;;;;;5093921;28;20035;-66
2022/05/14 02:56:57;;;;;;;4.55;1.58;;;13.60;99.90;;;;;;5093791;28;20032;-66
2022/05/14 02:59:23;;;;;;;2.97;1.37;;;13.40;99.90;;;;;;5093314;28;20074;-66
2022/05/14 03:01:49;;;;;;;3.97;1.73;;;13.20;99.90;;;;;;5092852;28;20035;-65
2022/05/14 03:04:17;;;;;;;4.45;1.55;;;13.00;99.90;;;;;;5093063;28;20056;-65
2022/05/14 03:06:43;;;;;;;2.55;1.30;;;13.00;99.90;;;;;;5093032;28;20388;-66
2022/05/14 03:09:09;;;;;;;2.53;1.23;;;12.80;99.90;;;;;;5092716;28;20024;-65
2022/05/14 03:11:35;;;;;;;3.55;1.65;;;12.70;99.90;;;;;;5092883;28;20028;-65
2022/05/14 03:14:01;;;;;;;3.70;1.50;;;12.80;99.90;;;;;;5092879;28;20036;-66
2022/05/14 03:16:26;;;;;;;1.93;1.13;;;12.70;99.90;;;;;;5093468;28;20055;-66
2022/05/14 03:18:52;;;;;;;3.47;1.30;;;12.60;99.90;;;;;;5074564;28;20036;-66
2022/05/14 03:21:17;;;;;;;1.83;1.10;;;12.60;99.90;;;;;;5093203;28;20035;-65
2022/05/14 03:23:43;;;;;;;3.53;1.30;;;12.60;99.90;;;;;;5093004;28;20028;-65
2022/05/14 03:26:08;;;;;;;5.37;1.40;;;12.50;99.90;;;;;;5092916;28;20061;-65
2022/05/14 03:28:34;;;;;;;3.00;1.20;;;12.50;99.90;;;;;;5092877;28;20020;-65
2022/05/14 03:30:59;;;;;;;3.67;1.57;;;12.50;99.90;;;;;;5092975;28;20461;-65
2022/05/14 03:33:25;;;;;;;4.17;1.27;;;12.50;99.90;;;;;;5074721;28;20031;-65
2022/05/14 03:35:50;;;;;;;3.63;1.70;;;12.50;99.90;;;;;;5074732;28;20028;-66
2022/05/14 03:38:16;;;;;;;2.93;1.30;;;12.50;99.90;;;;;;5095636;28;20032;-66
2022/05/14 03:40:42;;;;;;;5.20;1.20;;;12.50;99.90;;;;;;5105553;28;20047;-67
2022/05/14 03:43:07;;;;;;;2.30;1.37;;;12.60;99.90;;;;;;5108504;28;20032;-67
2022/05/14 03:45:33;;;;;;;2.60;1.23;;;12.60;99.90;;;;;;5108863;28;20035;-66
2022/05/14 03:47:58;;;;;;;3.13;1.30;;;12.50;99.90;;;;;;5108044;28;20039;-66
2022/05/14 03:50:24;;;;;;;5.10;1.27;;;12.40;99.90;;;;;;5107770;28;20032;-66
2022/05/14 03:52:49;;;;;;;6.30;1.50;;;12.40;99.90;;;;;;5106158;28;20594;-66
2022/05/14 03:55:15;;;;;;;4.00;1.57;;;12.30;99.90;;;;;;5106285;28;20258;-66
2022/05/14 03:57:41;;;;;;;3.47;1.50;;;12.30;99.90;;;;;;5105552;28;20106;-66
2022/05/14 04:00:08;;;;;;;3.17;1.50;;;12.20;99.90;;;;;;5102471;28;20058;-66
2022/05/14 04:02:34;;;;;;;4.75;1.60;;;12.30;99.90;;;;;;5101135;28;20028;-66
2022/05/14 04:04:59;;;;;;;3.90;1.90;;;12.30;99.90;;;;;;5101027;28;20016;-66
2022/05/14 04:07:25;;;;;;;4.47;1.67;;;12.30;99.90;;;;;;5100834;28;20035;-66
2022/05/14 04:09:51;;;;;;;2.77;1.13;;;12.40;99.90;;;;;;5100746;28;20055;-66
2022/05/14 04:12:17;;;;;;;2.55;1.33;;;12.40;99.90;;;;;;5101302;28;20269;-66
2022/05/14 04:14:43;;;;;;;6.22;1.90;;;12.40;99.90;;;;;;5081569;28;20028;-66
2022/05/14 04:17:09;;;;;;;5.72;1.67;;;12.40;99.90;;;;;;5100412;28;20510;-66
2022/05/14 04:19:34;;;;;;;3.13;1.40;;;12.40;99.90;;;;;;5105459;28;20032;-66
2022/05/14 04:22:00;;;;;;;3.43;1.20;;;12.40;99.90;;;;;;5106157;28;20028;-66
2022/05/14 04:24:27;;;;;;;6.93;1.60;;;12.40;99.90;;;;;;5106089;28;20027;-66
2022/05/14 04:26:53;;;;;;;3.08;1.40;;;12.40;99.90;;;;;;5101152;28;20473;-66
2022/05/14 04:29:19;;;;;;;3.15;1.63;;;12.30;99.90;;;;;;5101527;28;20016;-66
2022/05/14 04:31:45;;;;;;;3.93;1.87;;;12.30;99.90;;;;;;5101431;28;20034;-66
2022/05/14 04:34:11;;;;;;;3.73;1.80;;;12.30;99.90;;;;;;5101412;28;20269;-67
2022/05/14 04:36:37;;;;;;;3.88;2.25;;;12.30;99.90;;;;;;5101666;28;20269;-66
2022/05/14 04:39:03;;;;;;;6.10;1.50;;;12.40;99.90;;;;;;5101574;28;20099;-66
2022/05/14 04:41:30;;;;;;;3.58;1.77;;;12.40;99.90;;;;;;5098253;28;20024;-65
2022/05/14 04:43:57;;;;;;;5.53;2.38;;;12.60;99.90;;;;;;5099023;28;20024;-66
2022/05/14 04:46:23;;;;;;;2.63;1.20;;;12.70;99.90;;;;;;5102156;28;20117;-68
2022/05/14 04:48:49;;;;;;;5.97;1.60;;;12.90;99.90;;;;;;5100155;28;20036;-66
2022/05/14 04:51:15;;;;;;;2.55;1.50;;;12.90;99.90;;;;;;5101735;28;20035;-67
2022/05/14 04:53:40;;;;;;;4.18;1.58;;;12.90;99.90;;;;;;5085068;28;20021;-68
2022/05/14 04:56:06;;;;;;;2.28;1.40;;;12.90;99.90;;;;;;5101559;28;20116;-67
2022/05/14 04:58:32;;;;;;;4.95;1.33;;;12.90;99.90;;;;;;5082354;28;20070;-66
2022/05/14 05:00:57;;;;;;;3.17;1.60;;;13.00;99.90;;;;;;5100837;28;20103;-67
2022/05/14 05:03:24;;;;;;;2.63;1.60;;;12.90;99.90;;;;;;5080076;28;20089;-66
2022/05/14 05:05:56;;;;;;;4.47;1.90;;;12.90;99.90;;;;;;5095594;28;20027;-66
2022/05/14 05:08:23;;;;;;;3.88;1.75;;;12.90;99.90;;;;;;5096908;28;20028;-66
2022/05/14 05:10:50;;;;;;;3.55;1.75;;;12.90;99.90;;;;;;5078478;28;20028;-66
2022/05/14 05:13:17;;;;;;;;;;;13.00;99.90;;;;;;5080265;28;20480;-65
2022/05/14 05:15:43;;;;;;;4.03;1.90;;;12.90;99.90;;;;;;5097720;28;19908;-66
2022/05/14 05:18:09;;;;;;;4.30;1.80;;;13.00;99.90;;;;;;5099856;28;20035;-67
2022/05/14 05:20:37;;;;;;;3.60;1.50;;;13.10;99.90;;;;;;5099544;28;20043;-67
2022/05/14 05:23:04;;;;;;;4.72;1.70;;;13.20;99.90;;;;;;5098459;28;20020;-64
2022/05/14 05:25:30;;;;;;;4.80;1.83;;;13.30;99.90;;;;;;5097135;28;20028;-66
2022/05/14 05:27:56;;;;;;;4.32;1.50;;;13.30;99.90;;;;;;5079033;28;20038;-67
2022/05/14 05:30:22;;;;;;;4.82;1.52;;;13.30;99.90;;;;;;5095202;28;20043;-66
2022/05/14 05:32:48;;;;;;;4.57;2.35;;;13.30;99.90;;;;;;5095470;28;20032;-68
2022/05/14 05:35:13;;;;;;;8.48;1.58;;;13.30;99.90;;;;;;5094652;28;20058;-68
2022/05/14 05:37:39;;;;;;;2.58;1.85;;;13.30;99.90;;;;;;5094579;28;20376;-67
2022/05/14 05:40:05;;;;;;;3.38;1.45;;;13.50;99.90;;;;;;5094376;28;20046;-67
2022/05/14 05:42:32;;;;;;;5.93;2.58;;;13.40;99.90;;;;;;5094726;28;20077;-67
2022/05/14 05:44:58;;;;;;;5.22;2.10;;;13.50;99.90;;;;;;5093865;28;20073;-66
2022/05/14 05:47:24;;;;;;;3.63;1.38;;;13.50;99.90;;;;;;5094049;28;20087;-66
2022/05/14 05:49:50;;;;;;;10.85;2.28;;;13.60;99.90;;;;;;5094217;28;20055;-66
2022/05/14 05:52:16;;;;;;;;;;;13.70;99.90;;;;;;5094544;28;20431;-66
2022/05/14 05:57:38;;;;;;;6.18;1.50;;;13.90;99.90;;;;;;5093924;28;20059;-65
2022/05/14 06:00:08;;;;;;;8.35;1.77;;;13.90;99.90;;;;;;5092961;28;20021;-66
2022/05/14 06:02:34;;;;;;;4.03;1.48;;;13.90;99.90;;;;;;5075491;28;20471;-65
2022/05/14 06:04:59;;;;;;;4.90;1.57;;;14.00;99.90;;;;;;5093606;28;20016;-66
2022/05/14 06:07:25;;;;;;;5.60;1.70;;;14.20;99.90;;;;;;5093688;28;20646;-66
2022/05/14 06:09:51;;;;;;;4.23;1.50;;;14.30;99.90;;;;;;5093271;28;20020;-66
2022/05/14 06:12:17;;;;;;;4.97;1.58;;;14.30;99.90;;;;;;5093531;28;20619;-66
2022/05/14 06:14:43;;;;;;;3.38;1.70;;;14.40;99.90;;;;;;5093348;28;20035;-66
2022/05/14 06:17:10;;;;;;;7.20;2.58;;;14.50;99.90;;;;;;5093091;28;20032;-66
2022/05/14 06:19:36;;;;;;;4.22;1.50;;;14.60;99.90;;;;;;5093433;28;20020;-66
2022/05/14 06:22:04;;;;;;;6.43;2.08;;;14.70;99.90;;;;;;5092927;28;20216;-65
2022/05/14 06:24:30;;;;;;;8.25;1.60;;;14.70;99.90;;;;;;5093061;28;20025;-65
2022/05/14 06:26:56;;;;;;;4.10;1.65;;;14.70;99.90;;;;;;5093024;28;20026;-66
2022/05/14 06:29:22;;;;;;;3.83;1.55;;;14.80;99.90;;;;;;5093358;28;20028;-66
2022/05/14 06:31:48;;;;;;;4.93;2.17;;;14.80;99.90;;;;;;5074807;28;20480;-66
2022/05/14 06:34:13;;;;;;;5.88;1.60;;;14.90;99.90;;;;;;5093098;28;20266;-67
2022/05/14 06:36:39;;;;;;;8.00;1.85;;;14.90;99.90;;;;;;5093367;28;20031;-66
2022/05/14 06:39:05;;;;;;;5.68;1.65;;;15.00;99.90;;;;;;5093223;28;20032;-68
2022/05/14 06:41:30;;;;;;;8.85;1.75;;;15.10;99.90;;;;;;5093943;28;20028;-66
2022/05/14 06:43:56;;;;;;;4.35;1.67;;;15.20;99.90;;;;;;5093677;28;20032;-67
2022/05/14 06:46:22;;;;;;;4.22;1.50;;;15.20;99.90;;;;;;5093376;28;20016;-68
2022/05/14 06:48:48;;;;;;;3.90;1.40;;;15.20;99.90;;;;;;5092557;28;20036;-67
2022/05/14 06:51:21;;;;;;;3.50;1.47;;;15.40;99.90;;;;;;5092935;28;20028;-68
2022/05/14 06:53:49;;;;;;;4.90;1.80;;;15.50;99.90;;;;;;5092762;28;20322;-65
2022/05/14 06:56:16;;;;;;;3.83;1.40;;;15.60;99.90;;;;;;5092784;28;20033;-64
2022/05/14 06:58:43;;;;;;;9.25;1.92;;;15.70;99.90;;;;;;5092741;28;20119;-65
2022/05/14 07:01:09;;;;;;;4.03;1.45;;;15.80;99.90;;;;;;5092931;28;20020;-63
2022/05/14 07:06:39;;;;;;;4.45;1.70;;;15.80;99.90;;;;;;5093322;28;20036;-66
2022/05/14 07:09:23;;;;;;;5.90;1.60;;;15.90;99.90;;;;;;5093072;28;20032;-67
2022/05/14 07:11:51;;;;;;;6.07;1.80;;;16.00;99.90;;;;;;5093480;28;20032;-67
2022/05/14 07:14:18;;;;;;;4.70;2.20;;;16.10;99.90;;;;;;5096908;28;20024;-68
2022/05/14 07:16:45;;;;;;;4.15;1.55;;;16.10;99.90;;;;;;5096841;28;20427;-65
2022/05/14 07:19:11;;;;;;;4.20;1.30;;;16.20;99.90;;;;;;5096440;28;20377;-64
2022/05/14 07:21:40;;;;;;;4.15;1.63;;;16.30;99.90;;;;;;5096020;28;20089;-64
2022/05/14 07:24:09;;;;;;;4.53;1.55;;;16.40;99.90;;;;;;5096142;28;20060;-66
2022/05/14 07:26:36;;;;;;;4.45;1.70;;;16.60;99.90;;;;;;5096432;28;20083;-66
2022/05/14 07:29:09;;;;;;;4.82;1.65;;;16.80;99.90;;;;;;5096538;28;20373;-66
2022/05/14 07:31:35;;;;;;;10.07;1.52;;;16.80;99.90;;;;;;5096654;28;20038;-66
2022/05/14 07:34:01;;;;;;;;;;;17.00;99.90;;;;;;5096868;28;20036;-65
2022/05/14 07:36:29;;;;;;;4.55;1.52;;;17.00;99.90;;;;;;5096065;28;19904;-65
2022/05/14 07:38:59;;;;;;;7.65;1.52;;;17.00;99.90;;;;;;5095775;28;20036;-65
2022/05/14 07:41:25;;;;;;;4.57;1.83;;;17.20;99.90;;;;;;5096535;28;20027;-64
2022/05/14 07:43:53;;;;;;;3.28;1.63;;;17.20;99.90;;;;;;5096342;28;20124;-65
2022/05/14 07:46:26;;;;;;;3.97;1.38;;;17.30;99.90;;;;;;5095978;28;20045;-64
2022/05/14 07:48:53;;;;;;;4.03;1.42;;;17.30;99.90;;;;;;5095497;28;20066;-65
2022/05/14 07:51:19;;;;;;;3.75;1.50;;;17.40;99.90;;;;;;5096701;28;20149;-64
2022/05/14 07:53:46;;;;;;;2.40;1.40;;;17.60;99.90;;;;;;5096555;28;20069;-69
2022/05/14 07:56:12;;;;;;;3.30;1.25;;;17.70;99.70;;;;;;5096029;28;20491;-65
2022/05/14 07:58:38;;;;;;;4.55;1.30;;;18.30;99.10;;;;;;5096124;28;20054;-66
2022/05/14 08:01:05;;;;;;;4.32;1.60;;;20.10;96.50;;;;;;5096380;28;20028;-66
2022/05/14 08:03:32;;;;;;;4.88;1.67;;;22.30;93.00;;;;;;5096305;28;20058;-64
2022/05/14 08:05:58;;;;;;;5.82;1.50;;;24.20;88.00;;;;;;5077917;28;20396;-66
2022/05/14 08:08:24;;;;;;;3.67;1.60;;;25.20;81.30;;;;;;5095438;28;20028;-66
2022/05/14 08:10:51;;;;;;;;;;;26.10;77.50;;;;;;5096543;28;20020;-65
2022/05/14 08:13:17;;;;;;;2.28;1.20;;;26.90;74.40;;;;;;5095299;28;19968;-66
2022/05/14 08:15:46;;;;;;;5.93;1.63;;;28.30;70.10;;;;;;5095447;28;20034;-65
2022/05/14 08:18:12;;;;;;;3.75;1.40;;;29.70;66.40;;;;;;5095451;28;20456;-65
2022/05/14 08:20:47;;;;;;;8.02;1.90;;;30.70;64.20;;;;;;5096011;28;20024;-65
2022/05/14 08:25:59;;;;;;;4.68;1.20;;;31.70;58.50;;;;;;5096254;28;20376;-66
2022/05/14 08:28:26;;;;;;;4.30;1.30;;;32.60;56.30;;;;;;5095432;28;20038;-66
2022/05/14 08:30:52;;;;;;;4.00;1.27;;;32.60;54.80;;;;;;5095539;28;20063;-66
2022/05/14 08:33:19;;;;;;;5.40;2.25;;;32.80;54.60;;;;;;5095668;28;20031;-65
2022/05/14 08:35:46;;;;;;;3.28;1.42;;;33.60;53.80;;;;;;5095439;28;20126;-65
2022/05/14 08:38:14;;;;;;;3.30;1.40;;;32.60;54.00;;;;;;5095301;28;20107;-66
2022/05/14 08:41:01;;;;;;;3.63;1.27;;;32.60;53.70;;;;;;5095561;28;20042;-66
2022/05/14 08:43:32;;;;;;;2.90;1.00;;;33.40;52.90;;;;;;5095134;28;20028;-65
2022/05/14 08:45:59;;;;;;;5.15;1.20;;;34.60;51.50;;;;;;5095421;28;20101;-65
2022/05/14 08:48:37;;;;;;;2.65;1.50;;;35.80;50.40;;;;;;5095030;28;20043;-66
2022/05/14 08:51:16;;;;;;;9.88;1.30;;;35.00;49.80;;;;;;5095104;28;20095;-66
2022/05/14 08:53:45;;;;;;;3.95;1.58;;;35.10;49.10;;;;;;5077191;28;20027;-64
2022/05/14 08:56:20;;;;;;;4.55;1.20;;;33.70;49.90;;;;;;5095399;28;20486;-66
2022/05/14 08:58:52;;;;;;;3.65;1.38;;;34.00;50.40;;;;;;5094824;28;20055;-65
2022/05/14 09:01:22;;;;;;;2.08;1.00;;;34.70;49.50;;;;;;5076527;28;20028;-66
2022/05/14 09:03:48;;;;;;;3.55;1.52;;;35.50;48.50;;;;;;5094921;28;20027;-65
2022/05/14 09:06:14;;;;;;;4.22;1.30;;;36.30;47.20;;;;;;5094721;28;20024;-65
2022/05/14 09:08:40;;;;;;;2.22;1.20;;;36.70;46.70;;;;;;5076471;28;20024;-66
2022/05/14 09:11:17;;;;;;;5.57;1.50;;;37.20;46.30;;;;;;5094390;28;20075;-66
2022/05/14 09:13:47;;;;;;;5.43;2.20;;;37.30;45.40;;;;;;5076182;28;20024;-66
2022/05/14 09:16:28;;;;;;;3.22;1.30;;;36.50;45.30;;;;;;5094826;28;20024;-66
2022/05/14 09:18:54;;;;;;;2.38;1.00;;;35.80;46.10;;;;;;5094597;28;20376;-66
2022/05/14 09:21:24;;;;;;;5.15;1.48;;;36.30;46.20;;;;;;5094815;28;20433;-65
2022/05/14 09:24:03;;;;;;;3.70;1.10;;;36.70;45.70;;;;;;5094537;28;20020;-66
2022/05/14 09:26:34;;;;;;;4.53;1.85;;;37.20;45.50;;;;;;5093965;28;20044;-65
2022/05/14 09:29:27;;;;;;;2.75;1.20;;;37.20;45.00;;;;;;5094173;28;20075;-65
2022/05/14 09:32:05;;;;;;;3.53;1.25;;;36.50;45.40;;;;;;5095002;28;20027;-65
2022/05/14 09:34:34;;;;;;;3.72;1.50;;;37.60;44.90;;;;;;5093378;28;20078;-65
2022/05/14 09:37:16;;;;;;;3.30;1.10;;;37.00;44.90;;;;;;5075534;28;20122;-66
2022/05/14 09:39:42;;;;;;;4.45;1.10;;;37.60;44.60;;;;;;5093778;28;20503;-66
2022/05/14 09:42:24;;;;;;;2.88;1.38;;;38.40;44.30;;;;;;5093727;28;20028;-67
2022/05/14 09:44:52;;;;;;;4.20;1.50;;;37.30;44.10;;;;;;5093702;28;20384;-66
2022/05/14 09:47:32;;;;;;;5.50;1.95;;;37.30;43.60;;;;;;5093657;28;20034;-66
2022/05/14 09:50:03;;;;;;;3.72;1.30;;;38.30;43.30;;;;;;5094302;28;20073;-65
2022/05/14 09:52:32;;;;;;;1.48;1.00;;;38.20;42.60;;;;;;5094004;28;20061;-66
2022/05/14 09:55:01;;;;;;;4.93;1.48;;;38.10;43.00;;;;;;5094055;28;20016;-65
2022/05/14 09:57:47;;;;;;;3.75;1.65;;;37.80;43.50;;;;;;5075327;28;20052;-64
2022/05/14 10:00:47;;;;;;;3.35;1.48;;;36.50;43.20;;;;;;5093695;28;20089;-65
2022/05/14 10:03:27;;;;;;;2.38;1.10;;;35.40;44.00;;;;;;5093888;28;20020;-65
2022/05/14 10:06:27;;;;;;;5.00;1.30;;;34.50;44.90;;;;;;5094223;28;20380;-64
2022/05/14 10:09:06;;;;;;;2.00;1.13;;;32.80;46.20;;;;;;5093743;28;20028;-65
2022/05/14 10:11:46;;;;;;;2.35;1.00;;;34.10;45.80;;;;;;5093754;28;20047;-65
2022/05/14 10:14:43;;;;;;;2.15;1.30;;;34.70;44.10;;;;;;5093623;28;20107;-66
2022/05/14 10:17:27;;;;;;;;;;;36.10;42.80;;;;;;5093934;28;20020;-65
2022/05/14 10:20:13;;;;;;;3.00;1.40;;;35.00;42.90;;;;;;5094075;28;19957;-65
2022/05/14 10:29:25;;;;;;;4.13;1.45;;;35.50;43.10;;;;;;5093456;28;20503;-65
2022/05/14 10:31:50;;;;;;;2.10;1.10;;;35.70;42.40;;;;;;5093266;28;20032;-66
2022/05/14 10:34:22;;;;;;;3.50;1.10;;;35.80;42.60;;;;;;5093466;28;20024;-64
2022/05/14 10:36:56;;;;;;;3.22;1.20;;;36.40;43.10;;;;;;5093311;28;20039;-65
2022/05/14 10:39:54;;;;;;;2.63;1.15;;;36.60;42.10;;;;;;5093541;28;20020;-66
2022/05/14 10:42:53;;;;;;;2.10;0.90;;;36.10;41.70;;;;;;5093284;28;20023;-65
2022/05/14 10:45:22;;;;;;;2.25;1.27;;;35.70;41.90;;;;;;5092982;28;20484;-66
2022/05/14 10:48:12;;;;;;;3.80;0.90;;;35.90;42.00;;;;;;5096808;28;20036;-66
2022/05/14 10:50:37;;;;;;;2.75;1.10;;;35.70;41.20;;;;;;5097130;28;20056;-66
2022/05/14 10:53:06;;;;;;;4.68;1.30;;;36.10;42.10;;;;;;5097154;28;20360;-65
2022/05/14 10:55:42;;;;;;;2.17;1.20;;;36.50;40.70;;;;;;5096841;28;20047;-66
2022/05/14 10:58:08;;;;;;;2.05;1.00;;;36.80;41.10;;;;;;5097106;28;20202;-66
2022/05/14 11:00:40;;;;;;;2.42;1.35;;;36.80;40.80;;;;;;5097170;28;20020;-66
2022/05/14 11:03:27;;;;;;;6.57;1.17;;;37.00;41.00;;;;;;5078799;28;20027;-66
2022/05/14 11:06:02;;;;;;;3.35;1.23;;;36.60;41.50;;;;;;5097254;28;20066;-66
2022/05/14 11:08:35;;;;;;;3.65;1.15;;;35.60;41.80;;;;;;5097420;28;20028;-65
2022/05/14 11:11:05;;;;;;;4.78;1.70;;;33.80;43.20;;;;;;5096976;28;20031;-65
2022/05/14 11:13:31;;;;;;;3.33;1.30;;;32.20;44.90;;;;;;5078484;28;20034;-66
2022/05/14 11:16:10;;;;;;;2.33;1.17;;;30.90;45.80;;;;;;5097443;28;20024;-66
2022/05/14 11:18:50;;;;;;;3.92;1.38;;;29.90;46.70;;;;;;5096895;28;20035;-67
2022/05/14 11:21:18;;;;;;;4.97;1.13;;;28.50;48.30;;;;;;5096526;28;20035;-67
2022/05/14 11:23:58;;;;;;;3.05;1.00;;;27.70;48.60;;;;;;5096324;28;20385;-65
2022/05/14 11:26:25;;;;;;;3.63;1.40;;;27.10;49.90;;;;;;5096868;28;20023;-65
2022/05/14 11:29:10;;;;;;;5.32;1.52;;;26.60;50.60;;;;;;5097303;28;20028;-65
2022/05/14 11:31:40;;;;;;;2.25;1.00;;;25.80;52.40;;;;;;5096810;28;20032;-66
2022/05/14 11:34:21;;;;;;;2.95;1.20;;;25.50;52.90;;;;;;5096348;28;20507;-66
2022/05/14 11:36:50;;;;;;;2.55;0.90;;;25.40;53.40;;;;;;5096580;28;20036;-66
2022/05/14 11:39:18;;;;;;;3.38;1.13;;;25.40;52.80;;;;;;5096091;28;20300;-66
2022/05/14 11:41:44;;;;;;;4.70;1.55;;;24.70;53.60;;;;;;5096235;28;20020;-66
2022/05/14 11:44:10;;;;;;;;;;;24.70;54.40;;;;;;5096669;28;20024;-66
2022/05/14 11:46:49;;;;;;;3.85;1.10;;;24.70;53.90;;;;;;5096164;28;19911;-65
2022/05/14 11:49:39;;;;;;;2.60;1.30;;;24.70;52.80;;;;;;5096042;28;20051;-66
2022/05/14 11:52:22;;;;;;;3.72;0.90;;;24.60;54.10;;;;;;5077893;28;20047;-66
2022/05/14 11:55:06;;;;;;;3.13;1.23;;;24.70;53.90;;;;;;5096325;28;20337;-66
2022/05/14 11:57:38;;;;;;;4.00;1.17;;;24.70;55.10;;;;;;5095437;28;20029;-66
2022/05/14 12:00:09;;;;;;;2.75;1.20;;;24.60;52.80;;;;;;5096094;28;20065;-65
2022/05/14 12:03:07;;;;;;;3.30;1.00;;;24.70;52.90;;;;;;5095848;28;20031;-66
2022/05/14 12:05:42;;;;;;;3.88;1.10;;;24.70;52.80;;;;;;5033740;28;20441;-67
2022/05/14 12:08:41;;;;;;;108.40;57.45;;;24.70;53.70;;;;;;5033603;28;20490;-66
2022/05/14 12:11:27;;;;;;;2.17;1.30;;;24.60;54.40;;;;;;5033450;28;20042;-66
2022/05/14 12:14:07;;;;;;;3.38;1.27;;;24.40;53.10;;;;;;5033738;28;20044;-66
2022/05/14 12:16:32;;;;;;;5.25;1.42;;;24.50;53.40;;;;;;5033289;28;20071;-66
2022/05/14 12:18:59;;;;;;;;;;;24.40;54.10;;;;;;5033430;28;20037;-66
2022/05/14 12:21:25;;;;;;;7.05;1.73;;;24.30;53.20;;;;;;5033418;28;19912;-66
2022/05/14 12:23:50;;;;;;;;;;;24.40;53.80;;;;;;5033586;28;20033;-66
2022/05/14 12:26:27;;;;;;;3.35;1.40;;;24.50;54.50;;;;;;5033279;28;20369;-66
2022/05/14 12:28:58;;;;;;;3.45;1.20;;;24.30;54.90;;;;;;5032976;28;20065;-66
2022/05/14 12:34:12;;;;;;;3.70;1.20;;;24.30;54.20;;;;;;5033588;28;20137;-66
2022/05/14 12:36:51;;;;;;;2.78;1.27;;;24.20;53.90;;;;;;5033213;28;20537;-66
2022/05/14 12:39:21;;;;;;;2.88;1.38;;;24.20;54.90;;;;;;5032757;28;20038;-66
2022/05/14 12:41:53;;;;;;;3.20;1.42;;;24.20;55.40;;;;;;5052967;28;20388;-66
2022/05/14 12:44:34;;;;;;;3.22;1.10;;;24.10;55.50;;;;;;5095025;28;20048;-66
2022/05/14 12:47:01;;;;;;;5.13;2.83;;;24.10;55.40;;;;;;5094924;28;20381;-66
2022/05/14 12:49:30;;;;;;;10.27;2.33;;;24.20;55.40;;;;;;5076674;28;20073;-66
2022/05/14 12:52:06;;;;;;;8.50;1.75;;;24.20;55.50;;;;;;5094796;28;20020;-66
2022/05/14 12:54:33;;;;;;;2.33;1.17;;;24.30;54.30;;;;;;5094668;28;20031;-66
2022/05/14 12:57:05;;;;;;;4.10;1.35;;;24.40;53.10;;;;;;5095154;28;20473;-64
2022/05/14 12:59:31;;;;;;;5.55;1.40;;;24.40;54.00;;;;;;5096302;28;20109;-66
2022/05/14 13:02:13;;;;;;;2.75;1.30;;;24.50;54.40;;;;;;5095693;28;20396;-66
2022/05/14 13:04:48;;;;;;;3.72;1.20;;;24.60;53.90;;;;;;5095750;28;20480;-66
2022/05/14 13:07:15;;;;;;;3.03;1.02;;;24.30;54.50;;;;;;5095459;28;20031;-66
2022/05/14 13:09:41;;;;;;;4.55;1.40;;;24.30;55.20;;;;;;5077172;28;20429;-67
2022/05/14 13:12:14;;;;;;;2.45;1.30;;;24.40;55.30;;;;;;5095925;28;20030;-65
2022/05/14 13:14:55;;;;;;;2.80;1.20;;;24.50;54.60;;;;;;5076762;28;20059;-66
2022/05/14 13:17:28;;;;;;;5.25;1.65;;;24.70;53.90;;;;;;5094920;28;20377;-66
2022/05/14 13:19:57;;;;;;;3.20;1.45;;;24.70;54.30;;;;;;5094982;28;20024;-65
2022/05/14 13:22:38;;;;;;;6.93;1.30;;;24.70;54.60;;;;;;5094801;28;20032;-66
2022/05/14 13:25:31;;;;;;;3.60;1.73;;;24.90;53.70;;;;;;5095634;28;20020;-66
2022/05/14 13:28:33;;;;;;;3.72;1.30;;;24.90;53.40;;;;;;5076594;28;20090;-65